Time;durP1;ratioP1;P1;durP2;ratioP2;P2;SDS_P1;SDS_P2;PMS_P1;PMS_P2;Temp;Humidity;BMP_temperature;BMP_pressure;BME280_temperature;BME280_humidity;BME280_pressure;Samples;Min_cycle;Max_cycle;Signal;HPM_P1;HPM_P2
2022/05/17 00:00:23;;;;;;;4.40;2.22;;;;;;;;;;5094014;28;20023;-86
2022/05/17 00:02:48;;;;;;;2.40;2.00;;;;;;;;;;5096003;28;20486;-91
2022/05/17 00:05:14;;;;;;;2.63;2.25;;;;;;;;;;5094728;28;20024;-87
2022/05/17 00:07:40;;;;;;;3.53;2.70;;;;;;;;;;5094429;28;20453;-88
2022/05/17 00:10:06;;;;;;;4.22;2.88;;;;;;;;;;5095347;28;20084;-88
2022/05/17 00:12:32;;;;;;;3.03;2.33;;;;;;;;;;5095513;28;20416;-87
2022/05/17 00:14:58;;;;;;;3.83;2.78;;;;;;;;;;5095324;28;20020;-89
2022/05/17 00:17:24;;;;;;;2.95;2.30;;;;;;;;;;5094054;28;20028;-86
2022/05/17 00:19:49;;;;;;;3.13;2.22;;;;;;;;;;5095683;28;20360;-86
2022/05/17 00:22:15;;;;;;;6.72;2.70;;;;;;;;;;5095156;28;20068;-87
2022/05/17 00:24:41;;;;;;;4.07;2.58;;;;;;;;;;5095142;28;20024;-89
2022/05/17 00:27:07;;;;;;;3.00;2.40;;;;;;;;;;5093691;28;20028;-89
2022/05/17 00:29:33;;;;;;;2.80;2.50;;;;;;;;;;5094341;28;20121;-85
2022/05/17 00:31:58;;;;;;;3.25;2.33;;;;;;;;;;5094673;28;20024;-86
2022/05/17 00:34:24;;;;;;;3.22;2.50;;;;;;;;;;5093559;28;20039;-88
2022/05/17 00:36:50;;;;;;;3.90;2.38;;;;;;;;;;5092998;28;20020;-89
2022/05/17 00:39:15;;;;;;;3.42;2.50;;;;;;;;;;5093696;28;20028;-89
2022/05/17 00:41:41;;;;;;;4.32;2.30;;;;;;;;;;5093395;28;20463;-86
2022/05/17 00:47:28;;;;;;;3.72;2.88;;;;;;;;;;5091470;28;20059;-91
2022/05/17 00:50:06;;;;;;;6.13;2.55;;;;;;;;;;5081070;28;20071;-87
2022/05/17 00:52:38;;;;;;;5.47;2.53;;;;;;;;;;5093135;28;20028;-85
2022/05/17 00:55:14;;;;;;;3.72;2.17;;;;;;;;;;5092348;28;20127;-88
2022/05/17 00:58:00;;;;;;;4.10;2.35;;;;;;;;;;5094118;28;20522;-89
2022/05/17 01:00:30;;;;;;;3.67;2.35;;;;;;;;;;5093350;28;20042;-88
2022/05/17 01:03:04;;;;;;;5.13;2.03;;;;;;;;;;5093178;28;20028;-87
2022/05/17 01:05:34;;;;;;;3.42;2.38;;;;;;;;;;5092109;28;20051;-86
2022/05/17 01:07:59;;;;;;;2.30;2.10;;;;;;;;;;5091405;28;20024;-86
2022/05/17 01:10:28;;;;;;;2.72;2.17;;;;;;;;;;5093704;28;20032;-86
2022/05/17 01:15:39;;;;;;;3.63;2.70;;;;;;;;;;5090894;28;20435;-85
2022/05/17 01:18:06;;;;;;;4.25;2.53;;;;;;;;;;5090421;28;20081;-86
2022/05/17 01:20:35;;;;;;;2.33;1.92;;;;;;;;;;5091941;28;20046;-89
2022/05/17 01:23:00;;;;;;;2.97;2.40;;;;;;;;;;5092977;28;20033;-86
2022/05/17 01:25:27;;;;;;;4.72;2.60;;;;;;;;;;5092411;28;20032;-87
2022/05/17 01:27:58;;;;;;;4.03;2.05;;;;;;;;;;5092628;28;20468;-88
2022/05/17 01:30:26;;;;;;;2.80;2.50;;;;;;;;;;5090340;28;20028;-87
2022/05/17 01:32:52;;;;;;;4.22;2.50;;;;;;;;;;5093446;28;20028;-87
2022/05/17 01:35:19;;;;;;;3.60;2.50;;;;;;;;;;5093654;28;20506;-87
2022/05/17 01:37:45;;;;;;;4.88;2.55;;;;;;;;;;5092200;28;20480;-87
2022/05/17 01:40:11;;;;;;;3.97;2.75;;;;;;;;;;5091303;28;20495;-86
2022/05/17 01:42:37;;;;;;;3.08;2.60;;;;;;;;;;5091777;28;20032;-87
2022/05/17 01:45:03;;;;;;;3.25;2.85;;;;;;;;;;5091896;28;20024;-87
2022/05/17 01:47:29;;;;;;;4.05;2.65;;;;;;;;;;5092067;28;20069;-86
2022/05/17 01:49:55;;;;;;;3.58;2.30;;;;;;;;;;5091431;28;20111;-87
2022/05/17 01:52:20;;;;;;;3.25;2.28;;;;;;;;;;5093110;28;20026;-85
2022/05/17 01:54:46;;;;;;;2.70;2.20;;;;;;;;;;5091428;28;20040;-85
2022/05/17 01:57:11;;;;;;;3.88;2.53;;;;;;;;;;5092494;28;20046;-85
2022/05/17 01:59:37;;;;;;;3.10;2.72;;;;;;;;;;5092304;28;20024;-86
2022/05/17 02:02:03;;;;;;;4.70;2.65;;;;;;;;;;5092226;28;20023;-85
2022/05/17 02:04:29;;;;;;;3.47;2.65;;;;;;;;;;5090658;28;20043;-85
2022/05/17 02:06:54;;;;;;;6.88;2.90;;;;;;;;;;5092030;28;20063;-86
2022/05/17 02:09:20;;;;;;;3.67;2.90;;;;;;;;;;5090921;28;20464;-87
2022/05/17 02:11:45;;;;;;;4.38;2.80;;;;;;;;;;5090153;28;20479;-87
2022/05/17 02:14:11;;;;;;;3.28;2.90;;;;;;;;;;5091062;28;20020;-88
2022/05/17 02:16:38;;;;;;;4.18;2.60;;;;;;;;;;5091749;28;20024;-87
2022/05/17 02:19:04;;;;;;;3.70;2.72;;;;;;;;;;5091532;28;20027;-86
2022/05/17 02:21:30;;;;;;;3.55;2.97;;;;;;;;;;5090772;28;20024;-88
2022/05/17 02:23:55;;;;;;;5.78;3.20;;;;;;;;;;5091034;28;20145;-87
2022/05/17 02:26:21;;;;;;;5.93;2.78;;;;;;;;;;5092148;28;20039;-85
2022/05/17 02:28:46;;;;;;;3.45;2.53;;;;;;;;;;5092167;28;20024;-86
2022/05/17 02:31:13;;;;;;;5.80;2.47;;;;;;;;;;5090963;28;20031;-86
2022/05/17 02:33:38;;;;;;;4.68;2.88;;;;;;;;;;5090183;28;20020;-87
2022/05/17 02:36:04;;;;;;;3.17;2.47;;;;;;;;;;5092717;28;20047;-90
2022/05/17 02:38:29;;;;;;;4.03;2.67;;;;;;;;;;5090600;28;20020;-87
2022/05/17 02:40:55;;;;;;;4.35;2.85;;;;;;;;;;5092072;28;20115;-88
2022/05/17 02:43:20;;;;;;;3.65;2.70;;;;;;;;;;5092694;28;20023;-89
2022/05/17 02:45:46;;;;;;;5.70;2.92;;;;;;;;;;5091157;28;20043;-87
2022/05/17 02:48:11;;;;;;;3.58;2.40;;;;;;;;;;5092274;28;20032;-89
2022/05/17 02:50:37;;;;;;;4.60;2.83;;;;;;;;;;5090972;28;20028;-88
2022/05/17 02:53:03;;;;;;;5.00;2.72;;;;;;;;;;5091955;28;20028;-89
2022/05/17 02:55:28;;;;;;;6.68;2.80;;;;;;;;;;5090916;28;20098;-87
2022/05/17 02:57:54;;;;;;;4.63;2.65;;;;;;;;;;5090887;28;20110;-83
2022/05/17 03:00:25;;;;;;;2.78;2.47;;;;;;;;;;5090684;28;20119;-87
2022/05/17 03:02:52;;;;;;;4.30;2.85;;;;;;;;;;5090246;28;20032;-89
2022/05/17 03:05:17;;;;;;;3.42;2.50;;;;;;;;;;5091321;28;20028;-88
2022/05/17 03:07:43;;;;;;;3.95;2.75;;;;;;;;;;5094452;28;20032;-88
2022/05/17 03:10:10;;;;;;;3.20;2.60;;;;;;;;;;5095195;28;20085;-90
2022/05/17 03:12:37;;;;;;;3.30;2.60;;;;;;;;;;5094849;28;20479;-88
2022/05/17 03:15:03;;;;;;;5.38;2.90;;;;;;;;;;5096092;28;20101;-90
2022/05/17 03:17:29;;;;;;;4.28;2.80;;;;;;;;;;5095571;28;20458;-88
2022/05/17 03:19:55;;;;;;;3.45;2.80;;;;;;;;;;5095424;28;20059;-87
2022/05/17 03:22:21;;;;;;;4.60;2.75;;;;;;;;;;5094784;28;20118;-88
2022/05/17 03:24:46;;;;;;;6.00;2.72;;;;;;;;;;5095169;28;20051;-89
2022/05/17 03:27:12;;;;;;;3.13;2.75;;;;;;;;;;5094447;28;20074;-87
2022/05/17 03:29:37;;;;;;;3.92;2.75;;;;;;;;;;5095782;28;20057;-86
2022/05/17 03:32:03;;;;;;;4.25;2.60;;;;;;;;;;5093970;28;20502;-88
2022/05/17 03:34:29;;;;;;;3.60;2.67;;;;;;;;;;5094414;28;20870;-89
2022/05/17 03:36:54;;;;;;;4.03;2.90;;;;;;;;;;5094449;28;20024;-87
2022/05/17 03:39:20;;;;;;;4.05;2.67;;;;;;;;;;5095282;28;20098;-87
2022/05/17 03:41:45;;;;;;;5.20;2.72;;;;;;;;;;5094173;28;20135;-87
2022/05/17 03:44:11;;;;;;;4.45;2.50;;;;;;;;;;5093996;28;20051;-86
2022/05/17 03:46:38;;;;;;;4.93;2.80;;;;;;;;;;5093955;28;20047;-86
2022/05/17 03:49:03;;;;;;;3.70;2.47;;;;;;;;;;5093255;28;20027;-86
2022/05/17 03:51:29;;;;;;;4.38;2.60;;;;;;;;;;5093557;28;20376;-86
2022/05/17 03:53:54;;;;;;;4.05;2.90;;;;;;;;;;5093201;28;20039;-87
2022/05/17 03:56:20;;;;;;;3.15;2.80;;;;;;;;;;5093532;28;20056;-87
2022/05/17 03:58:46;;;;;;;4.93;2.83;;;;;;;;;;5093273;28;20467;-86
2022/05/17 04:01:12;;;;;;;4.78;2.97;;;;;;;;;;5094338;28;20365;-87
2022/05/17 04:03:38;;;;;;;3.75;3.17;;;;;;;;;;5094788;28;20016;-87
2022/05/17 04:06:04;;;;;;;3.72;2.85;;;;;;;;;;5092671;28;20544;-86
2022/05/17 04:08:30;;;;;;;10.10;3.17;;;;;;;;;;5094919;28;20028;-85
2022/05/17 04:10:56;;;;;;;5.50;3.50;;;;;;;;;;5094553;28;20024;-87
2022/05/17 04:13:22;;;;;;;4.32;3.25;;;;;;;;;;5093490;28;20028;-85
2022/05/17 04:15:47;;;;;;;4.72;3.20;;;;;;;;;;5093118;28;20024;-87
2022/05/17 04:18:13;;;;;;;4.85;2.90;;;;;;;;;;5094365;28;20081;-89
2022/05/17 04:20:38;;;;;;;4.05;3.15;;;;;;;;;;5092465;28;20069;-86
2022/05/17 04:23:04;;;;;;;7.70;3.53;;;;;;;;;;5092525;28;20103;-85
2022/05/17 04:25:29;;;;;;;5.93;3.33;;;;;;;;;;5093030;28;20027;-86
2022/05/17 04:27:56;;;;;;;5.75;3.25;;;;;;;;;;5094376;28;20430;-85
2022/05/17 04:30:22;;;;;;;4.32;3.28;;;;;;;;;;5094134;28;20024;-85
2022/05/17 04:32:49;;;;;;;4.80;3.50;;;;;;;;;;5094289;28;20077;-86
2022/05/17 04:35:16;;;;;;;5.22;3.40;;;;;;;;;;5092697;28;20024;-85
2022/05/17 04:37:41;;;;;;;4.60;3.25;;;;;;;;;;5093506;28;20067;-84
2022/05/17 04:40:09;;;;;;;6.78;3.78;;;;;;;;;;5094389;28;20483;-85
2022/05/17 04:42:36;;;;;;;4.03;3.40;;;;;;;;;;5125834;27;20425;-85
2022/05/17 04:45:03;;;;;;;7.22;4.05;;;;;;;;;;5092276;28;20032;-87
2022/05/17 04:47:29;;;;;;;8.45;3.47;;;;;;;;;;5091576;28;20174;-85
2022/05/17 04:49:55;;;;;;;6.45;4.00;;;;;;;;;;5092498;28;20024;-85
2022/05/17 04:52:23;;;;;;;7.80;3.97;;;;;;;;;;5093265;28;20149;-83
2022/05/17 04:54:49;;;;;;;5.65;3.42;;;;;;;;;;5092926;28;20059;-85
2022/05/17 04:57:15;;;;;;;6.20;4.18;;;;;;;;;;5093438;28;20043;-86
2022/05/17 04:59:41;;;;;;;4.85;3.78;;;;;;;;;;5092480;28;20024;-87
2022/05/17 05:02:07;;;;;;;6.18;4.30;;;;;;;;;;5093667;28;20027;-84
2022/05/17 05:04:32;;;;;;;6.47;3.80;;;;;;;;;;5091419;28;20024;-86
2022/05/17 05:06:58;;;;;;;6.57;3.30;;;;;;;;;;5091678;28;20032;-86
2022/05/17 05:09:23;;;;;;;6.00;4.15;;;;;;;;;;5091395;28;20050;-85
2022/05/17 05:11:49;;;;;;;7.32;4.03;;;;;;;;;;5089452;28;20032;-84
2022/05/17 05:14:14;;;;;;;4.90;3.78;;;;;;;;;;5093375;28;20020;-85
2022/05/17 05:16:39;;;;;;;8.60;4.00;;;;;;;;;;5092286;28;20028;-84
2022/05/17 05:19:05;;;;;;;7.68;4.15;;;;;;;;;;5092973;28;20028;-88
2022/05/17 05:21:31;;;;;;;4.55;3.63;;;;;;;;;;5093004;28;20024;-85
2022/05/17 05:23:56;;;;;;;9.27;4.07;;;;;;;;;;5092361;28;20024;-85
2022/05/17 05:26:22;;;;;;;7.93;3.90;;;;;;;;;;5092847;28;20074;-84
2022/05/17 05:28:47;;;;;;;9.77;5.18;;;;;;;;;;5087790;28;20046;-85
2022/05/17 05:31:15;;;;;;;7.32;5.68;;;;;;;;;;5090328;28;20522;-85
2022/05/17 05:33:41;;;;;;;6.22;5.60;;;;;;;;;;5089339;28;20041;-85
2022/05/17 05:36:07;;;;;;;11.00;5.80;;;;;;;;;;5088992;28;20027;-83
2022/05/17 05:38:33;;;;;;;9.73;5.80;;;;;;;;;;5087274;28;20039;-87
2022/05/17 05:40:58;;;;;;;7.78;6.50;;;;;;;;;;5091249;28;20024;-88
2022/05/17 05:43:25;;;;;;;8.10;5.53;;;;;;;;;;5091111;28;20028;-90
2022/05/17 05:45:50;;;;;;;8.70;6.53;;;;;;;;;;5091081;28;20032;-82
2022/05/17 05:48:16;;;;;;;12.52;6.90;;;;;;;;;;5089773;28;20032;-86
2022/05/17 05:50:42;;;;;;;9.70;6.80;;;;;;;;;;5092291;28;20048;-82
2022/05/17 05:53:11;;;;;;;16.10;7.20;;;;;;;;;;5091876;28;20031;-85
2022/05/17 05:55:38;;;;;;;7.70;6.75;;;;;;;;;;5089329;28;20071;-85
2022/05/17 05:58:04;;;;;;;11.68;7.07;;;;;;;;;;5091671;28;20077;-85
2022/05/17 06:00:30;;;;;;;8.73;6.22;;;;;;;;;;5084214;28;20023;-84
2022/05/17 06:02:56;;;;;;;9.23;6.50;;;;;;;;;;5085684;28;20051;-84
2022/05/17 06:05:23;;;;;;;10.77;6.78;;;;;;;;;;5088719;28;20555;-85
2022/05/17 06:07:52;;;;;;;13.93;6.75;;;;;;;;;;5086344;28;20055;-87
2022/05/17 06:10:20;;;;;;;9.47;6.10;;;;;;;;;;5089711;28;20080;-83
2022/05/17 06:12:45;;;;;;;9.80;6.80;;;;;;;;;;5091339;28;20268;-84
2022/05/17 06:15:11;;;;;;;10.77;5.78;;;;;;;;;;5091828;28;20475;-85
2022/05/17 06:17:38;;;;;;;7.10;5.90;;;;;;;;;;5088713;28;20032;-87
2022/05/17 06:20:06;;;;;;;11.48;6.15;;;;;;;;;;5092390;28;20453;-85
2022/05/17 06:22:31;;;;;;;10.88;6.00;;;;;;;;;;5090031;28;20020;-86
2022/05/17 06:24:57;;;;;;;8.55;5.97;;;;;;;;;;5090805;28;20054;-87
2022/05/17 06:27:22;;;;;;;7.40;5.95;;;;;;;;;;5090499;28;20031;-85
2022/05/17 06:29:48;;;;;;;9.18;6.25;;;;;;;;;;5084896;28;20475;-83
2022/05/17 06:32:15;;;;;;;21.60;14.90;;;;;;;;;;5091722;28;20036;-87
2022/05/17 06:34:42;;;;;;;9.52;6.25;;;;;;;;;;5089877;28;20129;-88
2022/05/17 06:37:08;;;;;;;7.07;5.45;;;;;;;;;;5091357;28;20055;-88
2022/05/17 06:39:35;;;;;;;8.70;5.28;;;;;;;;;;5090619;28;20019;-88
2022/05/17 06:42:01;;;;;;;8.18;5.13;;;;;;;;;;5091275;28;20024;-87
2022/05/17 06:44:28;;;;;;;11.90;5.85;;;;;;;;;;5091383;28;20364;-89
2022/05/17 06:46:54;;;;;;;11.93;5.45;;;;;;;;;;5090806;28;20102;-88
2022/05/17 06:49:21;;;;;;;8.55;5.75;;;;;;;;;;5090552;28;20469;-88
2022/05/17 06:51:46;;;;;;;6.95;5.18;;;;;;;;;;5091011;28;20031;-87
2022/05/17 06:54:12;;;;;;;14.20;4.95;;;;;;;;;;5090805;28;20040;-87
2022/05/17 06:56:38;;;;;;;7.35;4.82;;;;;;;;;;5092121;28;20035;-88
2022/05/17 06:59:04;;;;;;;12.52;5.70;;;;;;;;;;5090942;28;20433;-87
2022/05/17 07:01:29;;;;;;;8.30;4.50;;;;;;;;;;5091146;28;20059;-88
2022/05/17 07:03:56;;;;;;;7.38;5.45;;;;;;;;;;5090584;28;20028;-87
2022/05/17 07:06:21;;;;;;;11.65;5.13;;;;;;;;;;5091935;28;20028;-87
2022/05/17 07:08:47;;;;;;;7.68;4.88;;;;;;;;;;5090957;28;20044;-88
2022/05/17 07:13:57;;;;;;;8.07;4.88;;;;;;;;;;5091887;28;20039;-87
2022/05/17 07:16:23;;;;;;;12.80;5.53;;;;;;;;;;5091450;28;20023;-88
2022/05/17 07:18:49;;;;;;;7.47;4.47;;;;;;;;;;5088232;28;21006;-86
2022/05/17 07:21:15;;;;;;;11.35;4.88;;;;;;;;;;5091043;28;20027;-86
2022/05/17 07:23:42;;;;;;;7.30;5.10;;;;;;;;;;5091157;28;20050;-84
2022/05/17 07:26:08;;;;;;;8.88;5.35;;;;;;;;;;5091127;28;20038;-90
2022/05/17 07:28:43;;;;;;;10.38;5.75;;;;;;;;;;5089961;28;20040;-88
2022/05/17 07:31:09;;;;;;;8.57;5.72;;;;;;;;;;5089330;28;20043;-85
2022/05/17 07:33:35;;;;;;;9.98;5.10;;;;;;;;;;5090126;28;20472;-85
2022/05/17 07:36:02;;;;;;;8.02;5.22;;;;;;;;;;5089338;28;20031;-84
2022/05/17 07:38:28;;;;;;;7.75;4.68;;;;;;;;;;5089426;28;20024;-83
2022/05/17 07:40:54;;;;;;;6.55;4.57;;;;;;;;;;5087599;28;20020;-83
2022/05/17 07:43:20;;;;;;;8.20;5.53;;;;;;;;;;5088182;28;20035;-84
2022/05/17 07:45:49;;;;;;;9.30;5.32;;;;;;;;;;5086204;28;20024;-82
2022/05/17 07:48:25;;;;;;;4.88;4.35;;;;;;;;;;5088884;28;20057;-83
2022/05/17 07:50:51;;;;;;;7.13;5.00;;;;;;;;;;5088929;28;20036;-89
2022/05/17 07:53:19;;;;;;;10.80;4.70;;;;;;;;;;5092890;28;20150;-84
2022/05/17 07:55:46;;;;;;;10.25;5.15;;;;;;;;;;5095015;28;20036;-85
2022/05/17 07:58:14;;;;;;;6.63;4.90;;;;;;;;;;5092760;28;20102;-84
2022/05/17 08:00:42;;;;;;;7.10;4.50;;;;;;;;;;5094066;28;20451;-84
2022/05/17 08:03:08;;;;;;;11.68;4.57;;;;;;;;;;5095110;28;20378;-86
2022/05/17 08:05:35;;;;;;;7.15;4.80;;;;;;;;;;5089433;28;20418;-86
2022/05/17 08:08:01;;;;;;;7.50;4.80;;;;;;;;;;5091358;28;20116;-86
2022/05/17 08:10:27;;;;;;;7.93;5.13;;;;;;;;;;5089363;28;20039;-86
2022/05/17 08:12:52;;;;;;;11.65;5.68;;;;;;;;;;5088670;28;20023;-89
2022/05/17 08:15:20;;;;;;;6.57;4.00;;;;;;;;;;5087937;28;20341;-88
2022/05/17 08:17:45;;;;;;;7.70;4.43;;;;;;;;;;5094675;28;20032;-87
2022/05/17 08:20:11;;;;;;;8.45;4.57;;;;;;;;;;5093258;28;20160;-85
2022/05/17 08:22:42;;;;;;;6.03;3.58;;;;;;;;;;5088187;28;20032;-86
2022/05/17 08:27:55;;;;;;;9.27;4.63;;;;;;;;;;5088385;28;20070;-90
2022/05/17 08:30:22;;;;;;;9.38;5.00;;;;;;;;;;5095292;28;20036;-89
2022/05/17 08:35:55;;;;;;;8.68;4.05;;;;;;;;;;5089576;28;20035;-86
2022/05/17 08:38:34;;;;;;;5.40;3.38;;;;;;;;;;5091717;28;20030;-87
2022/05/17 08:41:21;;;;;;;6.45;4.13;;;;;;;;;;5089612;28;20035;-86
2022/05/17 08:43:49;;;;;;;8.50;4.18;;;;;;;;;;5090666;28;20027;-87
2022/05/17 08:46:33;;;;;;;12.90;4.35;;;;;;;;;;5083997;28;20487;-86
2022/05/17 08:49:19;;;;;;;7.32;3.80;;;;;;;;;;5087633;28;20028;-90
2022/05/17 08:52:07;;;;;;;5.75;3.53;;;;;;;;;;5087494;28;20028;-85
2022/05/17 08:54:53;;;;;;;4.55;3.58;;;;;;;;;;5093422;28;20048;-87
2022/05/17 08:57:33;;;;;;;5.80;3.65;;;;;;;;;;5090881;28;20024;-87
2022/05/17 09:00:09;;;;;;;5.80;3.70;;;;;;;;;;5092971;28;20065;-86
2022/05/17 09:02:42;;;;;;;11.00;4.20;;;;;;;;;;5094238;28;20405;-86
2022/05/17 09:05:33;;;;;;;7.78;3.13;;;;;;;;;;5092185;28;20464;-85
2022/05/17 09:08:28;;;;;;;4.22;2.63;;;;;;;;;;5086794;28;20036;-84
2022/05/17 09:11:23;;;;;;;4.85;2.70;;;;;;;;;;5089038;28;20023;-85
2022/05/17 09:13:55;;;;;;;4.72;2.85;;;;;;;;;;5086962;28;20036;-86
2022/05/17 09:16:24;;;;;;;4.35;2.25;;;;;;;;;;5088618;28;20042;-85
2022/05/17 09:18:51;;;;;;;5.53;2.35;;;;;;;;;;5090448;28;20027;-85
2022/05/17 09:21:29;;;;;;;4.00;2.53;;;;;;;;;;5092302;28;20933;-85
2022/05/17 09:23:58;;;;;;;3.10;2.10;;;;;;;;;;5093055;28;20095;-86
2022/05/17 09:26:25;;;;;;;5.15;2.50;;;;;;;;;;5089170;28;20506;-86
2022/05/17 09:29:03;;;;;;;2.70;2.08;;;;;;;;;;5092894;28;20103;-84
2022/05/17 09:31:32;;;;;;;4.63;2.60;;;;;;;;;;5091910;28;20020;-81
2022/05/17 09:34:02;;;;;;;6.05;2.75;;;;;;;;;;5091737;28;20032;-84
2022/05/17 09:36:32;;;;;;;;;;;;;;;;;;5091929;28;20039;-85
2022/05/17 09:38:59;;;;;;;3.38;2.65;;;;;;;;;;5090566;28;19912;-88
2022/05/17 09:41:31;;;;;;;4.38;2.80;;;;;;;;;;5092654;28;20095;-86
2022/05/17 09:44:04;;;;;;;5.70;2.80;;;;;;;;;;5090948;28;20035;-86
2022/05/17 09:46:33;;;;;;;4.40;2.90;;;;;;;;;;5092565;28;20467;-86
2022/05/17 09:54:48;;;;;;;4.25;2.70;;;;;;;;;;5089985;28;20466;-86
2022/05/17 09:57:17;;;;;;;4.63;2.63;;;;;;;;;;5092485;28;20112;-85
2022/05/17 09:59:44;;;;;;;5.05;2.13;;;;;;;;;;5090732;28;20142;-86
2022/05/17 10:02:28;;;;;;;4.63;2.30;;;;;;;;;;5089551;28;20570;-86
2022/05/17 10:04:55;;;;;;;5.80;2.50;;;;;;;;;;5089815;28;20038;-84
2022/05/17 10:07:24;;;;;;;6.15;2.28;;;;;;;;;;5091042;28;20032;-87
2022/05/17 10:09:50;;;;;;;2.70;2.00;;;;;;;;;;5090769;28;20426;-85
2022/05/17 10:12:27;;;;;;;3.08;2.40;;;;;;;;;;5092958;28;20024;-85
2022/05/17 10:14:58;;;;;;;4.72;2.33;;;;;;;;;;5087898;28;20792;-86
2022/05/17 10:17:36;;;;;;;4.85;1.92;;;;;;;;;;5089449;28;20036;-85
2022/05/17 10:20:07;;;;;;;4.13;1.90;;;;;;;;;;5090370;28;20035;-84
2022/05/17 10:23:02;;;;;;;3.28;1.90;;;;;;;;;;5086980;28;20490;-86
2022/05/17 10:25:35;;;;;;;2.45;1.70;;;;;;;;;;5090521;28;20443;-86
2022/05/17 10:28:11;;;;;;;2.53;1.80;;;;;;;;;;5087463;28;20024;-86
2022/05/17 10:31:01;;;;;;;4.63;2.03;;;;;;;;;;5084438;28;20064;-89
2022/05/17 10:33:35;;;;;;;4.75;2.17;;;;;;;;;;5120109;27;20434;-85
2022/05/17 10:36:05;;;;;;;2.70;1.65;;;;;;;;;;5090819;28;20029;-84
2022/05/17 10:38:39;;;;;;;5.72;1.90;;;;;;;;;;5084691;28;20078;-85
2022/05/17 10:41:09;;;;;;;2.75;1.70;;;;;;;;;;5088918;28;20031;-84
2022/05/17 10:43:38;;;;;;;3.97;1.65;;;;;;;;;;5088042;28;20374;-88
2022/05/17 10:46:04;;;;;;;3.78;1.83;;;;;;;;;;5090839;28;20023;-85
2022/05/17 10:48:48;;;;;;;3.42;1.92;;;;;;;;;;5089014;28;20028;-85
2022/05/17 10:51:26;;;;;;;2.90;1.55;;;;;;;;;;5091409;28;20032;-84
2022/05/17 10:54:39;;;;;;;2.25;1.90;;;;;;;;;;5087106;28;20070;-84
2022/05/17 10:57:15;;;;;;;4.55;1.73;;;;;;;;;;5069118;28;20480;-87
2022/05/17 11:00:18;;;;;;;3.67;2.25;;;;;;;;;;5090695;28;20043;-83
2022/05/17 11:02:52;;;;;;;4.07;2.20;;;;;;;;;;5078636;28;20036;-88
2022/05/17 11:05:58;;;;;;;4.85;2.10;;;;;;;;;;5087590;28;20451;-84
2022/05/17 11:08:36;;;;;;;2.05;1.60;;;;;;;;;;5088384;28;20385;-84
2022/05/17 11:11:26;;;;;;;2.60;1.90;;;;;;;;;;5089232;28;20111;-86
2022/05/17 11:14:02;;;;;;;3.45;1.83;;;;;;;;;;5089212;28;20024;-84
2022/05/17 11:16:30;;;;;;;3.58;2.03;;;;;;;;;;5088234;28;20032;-84
2022/05/17 11:20:04;;;;;;;3.67;2.33;;;;;;;;;;5088959;28;20047;-86
2022/05/17 11:22:48;;;;;;;3.45;1.80;;;;;;;;;;5006439;28;20715;-84
2022/05/17 11:25:13;;;;;;;3.92;2.30;;;;;;;;;;5089760;28;20055;-85
2022/05/17 11:28:10;;;;;;;2.63;1.80;;;;;;;;;;5088091;28;20458;-86
2022/05/17 11:31:00;;;;;;;2.78;2.20;;;;;;;;;;5092003;28;20099;-86
2022/05/17 11:33:35;;;;;;;3.53;2.28;;;;;;;;;;5094939;28;20106;-87
2022/05/17 11:36:32;;;;;;;2.55;2.10;;;;;;;;;;5089308;28;20062;-87
2022/05/17 11:38:58;;;;;;;3.80;2.00;;;;;;;;;;5086864;28;20190;-84
2022/05/17 11:41:43;;;;;;;2.50;1.85;;;;;;;;;;5091851;28;20466;-85
2022/05/17 11:44:22;;;;;;;3.00;1.92;;;;;;;;;;5091291;28;20024;-86
2022/05/17 11:46:54;;;;;;;3.47;2.17;;;;;;;;;;5087647;28;20031;-84
2022/05/17 12:04:21;;;;;;;2.95;2.30;;;;;;;;;;5129175;27;20377;-89
2022/05/17 12:06:56;;;;;;;5.80;2.38;;;;;;;;;;5110950;28;20560;-87
2022/05/17 12:09:31;;;;;;;3.45;2.10;;;;;;;;;;5108391;28;20028;-87
2022/05/17 12:12:27;;;;;;;3.25;2.10;;;;;;;;;;5102257;28;20024;-86
2022/05/17 12:15:14;;;;;;;2.83;1.90;;;;;;;;;;5103706;28;20076;-90
2022/05/17 12:17:54;;;;;;;2.45;2.20;;;;;;;;;;5103439;28;20141;-85
2022/05/17 12:20:53;;;;;;;4.03;2.30;;;;;;;;;;5109479;28;20073;-89
2022/05/17 12:23:45;;;;;;;4.13;2.03;;;;;;;;;;5142747;27;20425;-85
2022/05/17 12:26:45;;;;;;;3.22;2.00;;;;;;;;;;5111952;28;20364;-86
2022/05/17 12:32:10;;;;;;;4.18;2.10;;;;;;;;;;5109435;28;20069;-85
2022/05/17 12:34:39;;;;;;;3.20;2.03;;;;;;;;;;5109506;28;20032;-87
2022/05/17 12:37:16;;;;;;;3.95;2.05;;;;;;;;;;5106551;28;20094;-85
2022/05/17 12:45:23;;;;;;;2.35;1.83;;;;;;;;;;5105935;28;20081;-88
2022/05/17 12:47:52;;;;;;;5.25;2.15;;;;;;;;;;5110899;28;20498;-87
2022/05/17 12:50:43;;;;;;;3.08;1.92;;;;;;;;;;5101286;28;20028;-83
2022/05/17 12:53:21;;;;;;;3.28;2.05;;;;;;;;;;5106762;28;20061;-89
2022/05/17 12:56:07;;;;;;;4.75;2.25;;;;;;;;;;5110261;28;20036;-86
2022/05/17 12:58:35;;;;;;;3.05;1.90;;;;;;;;;;5105884;28;20085;-87
2022/05/17 13:01:03;;;;;;;3.13;1.75;;;;;;;;;;5104710;28;20051;-86
2022/05/17 13:03:31;;;;;;;2.72;2.10;;;;;;;;;;5105831;28;20052;-87
2022/05/17 13:06:01;;;;;;;4.00;1.80;;;;;;;;;;5089596;28;20030;-85
2022/05/17 13:08:37;;;;;;;3.45;2.10;;;;;;;;;;5090530;28;20024;-89
2022/05/17 13:11:17;;;;;;;2.95;1.80;;;;;;;;;;5095867;28;20031;-87
2022/05/17 13:13:42;;;;;;;2.45;1.95;;;;;;;;;;5092940;28;20103;-85
2022/05/17 13:16:13;;;;;;;3.35;1.75;;;;;;;;;;5096491;28;20048;-84
2022/05/17 13:18:44;;;;;;;5.65;2.20;;;;;;;;;;5090066;28;20471;-89
2022/05/17 13:21:22;;;;;;;3.08;2.08;;;;;;;;;;5094782;28;20020;-83
2022/05/17 13:23:49;;;;;;;3.05;2.00;;;;;;;;;;5090903;28;20490;-83
2022/05/17 13:26:23;;;;;;;2.88;1.80;;;;;;;;;;5093268;28;20128;-86
2022/05/17 13:28:49;;;;;;;5.90;2.60;;;;;;;;;;5091834;28;20851;-83
2022/05/17 13:31:21;;;;;;;3.58;1.77;;;;;;;;;;5096998;28;20099;-82
2022/05/17 13:33:58;;;;;;;2.50;1.70;;;;;;;;;;5088884;28;20494;-82
2022/05/17 13:36:39;;;;;;;2.95;1.88;;;;;;;;;;5094026;28;20107;-84
2022/05/17 13:39:40;;;;;;;2.88;2.13;;;;;;;;;;5093259;28;20433;-88
2022/05/17 13:42:24;;;;;;;2.63;2.10;;;;;;;;;;5094862;28;20039;-86
2022/05/17 13:44:59;;;;;;;8.05;2.17;;;;;;;;;;5097990;28;20024;-84
2022/05/17 13:47:30;;;;;;;2.47;1.90;;;;;;;;;;5096482;28;20020;-87
2022/05/17 13:49:58;;;;;;;3.08;1.65;;;;;;;;;;5095810;28;20016;-85
2022/05/17 13:52:37;;;;;;;2.47;1.70;;;;;;;;;;5102556;28;20024;-84
2022/05/17 13:55:10;;;;;;;2.65;1.98;;;;;;;;;;5095720;28;20027;-84
2022/05/17 13:57:45;;;;;;;3.35;2.08;;;;;;;;;;5096754;28;20044;-83
2022/05/17 14:00:17;;;;;;;3.03;2.08;;;;;;;;;;5095584;28;20076;-85
2022/05/17 14:02:48;;;;;;;3.90;2.20;;;;;;;;;;5095982;28;20044;-81
2022/05/17 14:05:27;;;;;;;6.30;2.17;;;;;;;;;;5089925;28;20494;-82
2022/05/17 14:11:49;;;;;;;2.95;2.03;;;;;;;;;;5100296;28;20032;-86
2022/05/17 14:13:31;;;;;;;2.20;1.95;;;;;;;;;;5094233;28;20073;-84
2022/05/17 14:15:57;;;;;;;4.93;2.10;;;;;;;;;;5095165;28;20035;-83
2022/05/17 14:18:27;;;;;;;5.95;1.77;;;;;;;;;;5096093;28;20023;-85
2022/05/17 14:20:53;;;;;;;2.75;1.90;;;;;;;;;;5094409;28;20480;-86
2022/05/17 14:23:18;;;;;;;2.65;2.00;;;;;;;;;;5094753;28;20020;-84
2022/05/17 14:25:44;;;;;;;3.42;1.90;;;;;;;;;;5095735;28;20024;-84
2022/05/17 14:28:10;;;;;;;3.92;1.98;;;;;;;;;;5093859;28;20059;-86
2022/05/17 14:30:36;;;;;;;4.50;2.20;;;;;;;;;;5094190;28;20039;-84
2022/05/17 14:33:03;;;;;;;4.40;2.20;;;;;;;;;;5094482;28;20099;-87
2022/05/17 14:35:30;;;;;;;4.43;2.40;;;;;;;;;;5090102;28;20038;-90
2022/05/17 14:37:56;;;;;;;2.95;2.20;;;;;;;;;;5099907;28;20032;-88
2022/05/17 14:40:23;;;;;;;2.15;1.73;;;;;;;;;;5092203;28;20112;-88
2022/05/17 14:42:49;;;;;;;6.55;2.28;;;;;;;;;;5090173;28;20020;-87
2022/05/17 14:45:15;;;;;;;2.53;1.90;;;;;;;;;;5127973;27;20103;-86
2022/05/17 14:47:41;;;;;;;3.15;1.80;;;;;;;;;;5089750;28;20020;-85
2022/05/17 14:50:10;;;;;;;4.05;2.10;;;;;;;;;;5092470;28;20020;-88
2022/05/17 14:52:36;;;;;;;2.40;1.80;;;;;;;;;;5096854;28;20047;-87
2022/05/17 14:55:02;;;;;;;3.13;1.90;;;;;;;;;;5090504;28;20035;-86
2022/05/17 14:57:27;;;;;;;3.15;2.22;;;;;;;;;;5092490;28;20434;-87
2022/05/17 14:59:53;;;;;;;2.22;1.70;;;;;;;;;;5096709;28;20084;-91
2022/05/17 15:02:19;;;;;;;3.97;1.73;;;;;;;;;;5120394;27;20439;-90
2022/05/17 15:04:45;;;;;;;5.00;2.00;;;;;;;;;;5097637;28;20387;-89
2022/05/17 15:07:28;;;;;;;3.08;2.03;;;;;;;;;;5094276;28;20107;-91
2022/05/17 15:09:56;;;;;;;4.53;2.00;;;;;;;;;;5095410;28;20016;-89
2022/05/17 15:12:21;;;;;;;2.47;1.77;;;;;;;;;;5096322;28;20024;-86
2022/05/17 15:14:47;;;;;;;2.88;2.20;;;;;;;;;;5092897;28;20035;-89
2022/05/17 15:17:12;;;;;;;5.35;2.00;;;;;;;;;;5096146;28;20043;-86
2022/05/17 15:19:38;;;;;;;3.50;1.98;;;;;;;;;;5097838;28;20035;-89
2022/05/17 15:22:07;;;;;;;4.40;2.42;;;;;;;;;;5093220;28;20032;-88
2022/05/17 15:24:35;;;;;;;3.42;1.90;;;;;;;;;;5092422;28;20028;-89
2022/05/17 15:27:00;;;;;;;2.65;2.20;;;;;;;;;;5092582;28;20032;-88
2022/05/17 15:29:26;;;;;;;3.17;2.40;;;;;;;;;;5095658;28;20019;-87
2022/05/17 15:31:51;;;;;;;2.45;2.00;;;;;;;;;;5095990;28;20020;-88
2022/05/17 15:34:20;;;;;;;4.32;2.20;;;;;;;;;;5093944;28;20027;-87
2022/05/17 15:36:46;;;;;;;3.13;2.25;;;;;;;;;;5093335;28;20050;-89
2022/05/17 15:39:11;;;;;;;4.55;2.45;;;;;;;;;;5091583;28;20036;-89
2022/05/17 15:41:37;;;;;;;4.45;2.47;;;;;;;;;;5091902;28;20034;-88
2022/05/17 15:44:03;;;;;;;7.18;2.45;;;;;;;;;;5092487;28;20024;-86
2022/05/17 15:53:15;;;;;;;3.30;2.10;;;;;;;;;;5093058;28;20379;-88